Terminal Aerodrome Forecast
Issued by NWS Central Illinois

Home | Current Version | Previous Version | Text Only | Print | Product List | Glossary On
Versions: 1 2 3 4 5 6 7 8 9 10 11 12 13 14 15 16 17 18 19 20 21 22 23 24 25 26 27 28 29
000
FTUS43 KILX 301910 AAA
TAFSPI
TAF AMD
KSPI 301910Z 3019/3118 34005KT 5SM -RA BR SCT008 BKN025
      TEMPO 3019/3020 1SM BR
     FM302100 35010KT 4SM -RA BR OVC015
     FM310100 02014G24KT P6SM VCSH OVC008
     FM310500 02012KT P6SM OVC015=

USA.gov is the U.S. government's official web portal to all federal, state and local government web resources and services.